sensor_id;sensor_type;location;lat;lon;timestamp;pressure;altitude;pressure_sealevel;temperature;humidity
73551;BME280;61816;53.582;10.096;2023-04-27T00:01:28;54424.13;;;-144.73;100.00
73551;BME280;61816;53.582;10.096;2023-04-27T00:03:54;54395.38;;;-144.73;100.00
73551;BME280;61816;53.582;10.096;2023-04-27T00:06:20;54407.69;;;-144.73;100.00
73551;BME280;61816;53.582;10.096;2023-04-27T00:08:45;54430.28;;;-144.73;100.00
73551;BME280;61816;53.582;10.096;2023-04-27T00:11:11;54378.97;;;-144.73;100.00
73551;BME280;61816;53.582;10.096;2023-04-27T00:13:36;54407.69;;;-144.73;100.00
73551;BME280;61816;53.582;10.096;2023-04-27T00:16:02;54420.00;;;-144.73;100.00
73551;BME280;61816;53.582;10.096;2023-04-27T00:18:29;54415.91;;;-144.73;100.00
73551;BME280;61816;53.582;10.096;2023-04-27T00:20:55;54417.97;;;-144.73;100.00
73551;BME280;61816;53.582;10.096;2023-04-27T00:23:20;54378.97;;;-144.73;100.00
73551;BME280;61816;53.582;10.096;2023-04-27T00:25:46;54424.13;;;-144.73;100.00
73551;BME280;61816;53.582;10.096;2023-04-27T00:28:11;54432.31;;;-144.73;100.00
73551;BME280;61816;53.582;10.096;2023-04-27T00:30:37;54436.44;;;-144.73;100.00
73551;BME280;61816;53.582;10.096;2023-04-27T00:33:02;54469.28;;;-144.73;100.00
73551;BME280;61816;53.582;10.096;2023-04-27T00:35:28;54436.44;;;-144.73;100.00
73551;BME280;61816;53.582;10.096;2023-04-27T00:37:53;54383.06;;;-144.73;100.00
73551;BME280;61816;53.582;10.096;2023-04-27T00:40:19;54415.91;;;-144.73;100.00
73551;BME280;61816;53.582;10.096;2023-04-27T00:42:45;54415.91;;;-144.73;100.00
73551;BME280;61816;53.582;10.096;2023-04-27T00:45:10;54395.38;;;-144.73;100.00
73551;BME280;61816;53.582;10.096;2023-04-27T00:47:37;54415.91;;;-144.73;100.00
73551;BME280;61816;53.582;10.096;2023-04-27T00:50:03;54420.00;;;-144.73;100.00
73551;BME280;61816;53.582;10.096;2023-04-27T00:52:32;54438.50;;;-144.73;100.00
73551;BME280;61816;53.582;10.096;2023-04-27T00:55:01;54407.69;;;-144.73;100.00
73551;BME280;61816;53.582;10.096;2023-04-27T00:57:28;54456.97;;;-144.73;100.00
73551;BME280;61816;53.582;10.096;2023-04-27T00:59:53;54426.16;;;-144.73;100.00
73551;BME280;61816;53.582;10.096;2023-04-27T01:02:18;54424.13;;;-144.73;100.00
73551;BME280;61816;53.582;10.096;2023-04-27T01:04:44;54436.44;;;-144.73;100.00
73551;BME280;61816;53.582;10.096;2023-04-27T01:07:09;54440.53;;;-144.73;100.00
73551;BME280;61816;53.582;10.096;2023-04-27T01:09:35;54430.28;;;-144.73;100.00
73551;BME280;61816;53.582;10.096;2023-04-27T01:12:00;54444.66;;;-144.73;100.00
73551;BME280;61816;53.582;10.096;2023-04-27T01:14:27;54436.44;;;-144.73;100.00
73551;BME280;61816;53.582;10.096;2023-04-27T01:16:52;54440.53;;;-144.73;100.00
73551;BME280;61816;53.582;10.096;2023-04-27T01:19:18;54461.06;;;-144.73;100.00
73551;BME280;61816;53.582;10.096;2023-04-27T01:21:43;54448.75;;;-144.73;100.00
73551;BME280;61816;53.582;10.096;2023-04-27T01:24:09;54409.75;;;-144.73;100.00
73551;BME280;61816;53.582;10.096;2023-04-27T01:26:34;54378.97;;;-144.73;100.00
73551;BME280;61816;53.582;10.096;2023-04-27T01:29:00;54436.44;;;-144.73;100.00
73551;BME280;61816;53.582;10.096;2023-04-27T01:31:25;54448.75;;;-144.73;100.00
73551;BME280;61816;53.582;10.096;2023-04-27T01:33:51;54411.81;;;-144.73;100.00
73551;BME280;61816;53.582;10.096;2023-04-27T01:36:16;54407.69;;;-144.73;100.00
73551;BME280;61816;53.582;10.096;2023-04-27T01:38:42;54407.69;;;-144.73;100.00
73551;BME280;61816;53.582;10.096;2023-04-27T01:41:08;54407.69;;;-144.73;100.00
73551;BME280;61816;53.582;10.096;2023-04-27T01:43:34;54436.44;;;-144.73;100.00
73551;BME280;61816;53.582;10.096;2023-04-27T01:46:07;54424.13;;;-144.73;100.00
73551;BME280;61816;53.582;10.096;2023-04-27T01:48:34;54420.00;;;-144.73;100.00
73551;BME280;61816;53.582;10.096;2023-04-27T01:50:59;54383.06;;;-144.73;100.00
73551;BME280;61816;53.582;10.096;2023-04-27T01:53:24;54420.00;;;-144.73;100.00
73551;BME280;61816;53.582;10.096;2023-04-27T01:55:50;54444.66;;;-144.73;100.00
73551;BME280;61816;53.582;10.096;2023-04-27T01:58:15;54356.38;;;-144.73;100.00
73551;BME280;61816;53.582;10.096;2023-04-27T02:00:41;54383.06;;;-144.73;100.00
73551;BME280;61816;53.582;10.096;2023-04-27T02:03:06;54430.28;;;-144.73;100.00
73551;BME280;61816;53.582;10.096;2023-04-27T02:05:31;54452.84;;;-144.73;100.00
73551;BME280;61816;53.582;10.096;2023-04-27T02:07:57;54407.69;;;-144.73;100.00
73551;BME280;61816;53.582;10.096;2023-04-27T02:10:22;54411.81;;;-144.73;100.00
73551;BME280;61816;53.582;10.096;2023-04-27T02:12:47;54444.66;;;-144.73;100.00
73551;BME280;61816;53.582;10.096;2023-04-27T02:15:13;54413.84;;;-144.73;100.00
73551;BME280;61816;53.582;10.096;2023-04-27T02:17:38;54391.28;;;-144.73;100.00
73551;BME280;61816;53.582;10.096;2023-04-27T02:20:05;54432.31;;;-144.73;100.00
73551;BME280;61816;53.582;10.096;2023-04-27T02:22:31;54436.44;;;-144.73;100.00
73551;BME280;61816;53.582;10.096;2023-04-27T02:24:56;54428.22;;;-144.73;100.00
73551;BME280;61816;53.582;10.096;2023-04-27T02:27:22;54444.66;;;-144.73;100.00
73551;BME280;61816;53.582;10.096;2023-04-27T02:29:47;54432.31;;;-144.73;100.00
73551;BME280;61816;53.582;10.096;2023-04-27T02:32:12;54448.75;;;-144.73;100.00
73551;BME280;61816;53.582;10.096;2023-04-27T02:34:38;54436.44;;;-144.73;100.00
73551;BME280;61816;53.582;10.096;2023-04-27T02:37:06;54426.16;;;-144.73;100.00
73551;BME280;61816;53.582;10.096;2023-04-27T02:39:32;54456.97;;;-144.73;100.00
73551;BME280;61816;53.582;10.096;2023-04-27T02:41:57;54424.13;;;-144.73;100.00
73551;BME280;61816;53.582;10.096;2023-04-27T02:44:22;54399.50;;;-144.73;100.00
73551;BME280;61816;53.582;10.096;2023-04-27T02:46:49;54420.00;;;-144.73;100.00
73551;BME280;61816;53.582;10.096;2023-04-27T02:49:15;54407.69;;;-144.73;100.00
73551;BME280;61816;53.582;10.096;2023-04-27T02:51:40;54426.16;;;-144.73;100.00
73551;BME280;61816;53.582;10.096;2023-04-27T02:54:06;54424.13;;;-144.73;100.00
73551;BME280;61816;53.582;10.096;2023-04-27T02:56:31;54409.75;;;-144.73;100.00
73551;BME280;61816;53.582;10.096;2023-04-27T02:58:56;54415.91;;;-144.73;100.00
73551;BME280;61816;53.582;10.096;2023-04-27T03:01:21;54407.69;;;-144.73;100.00
73551;BME280;61816;53.582;10.096;2023-04-27T03:03:47;54411.81;;;-144.73;100.00
73551;BME280;61816;53.582;10.096;2023-04-27T03:06:13;54428.22;;;-144.73;100.00
73551;BME280;61816;53.582;10.096;2023-04-27T03:08:38;54391.28;;;-144.73;100.00
73551;BME280;61816;53.582;10.096;2023-04-27T03:11:04;54434.38;;;-144.73;100.00
73551;BME280;61816;53.582;10.096;2023-04-27T03:13:30;54420.00;;;-144.73;100.00
73551;BME280;61816;53.582;10.096;2023-04-27T03:15:55;54422.06;;;-144.73;100.00
73551;BME280;61816;53.582;10.096;2023-04-27T03:18:21;54477.47;;;-144.73;100.00
73551;BME280;61816;53.582;10.096;2023-04-27T03:20:46;54428.22;;;-144.73;100.00
73551;BME280;61816;53.582;10.096;2023-04-27T03:23:12;54407.69;;;-144.73;100.00
73551;BME280;61816;53.582;10.096;2023-04-27T03:25:37;54411.81;;;-144.73;100.00
73551;BME280;61816;53.582;10.096;2023-04-27T03:28:02;54399.50;;;-144.73;100.00
73551;BME280;61816;53.582;10.096;2023-04-27T03:30:28;54424.13;;;-144.73;100.00
73551;BME280;61816;53.582;10.096;2023-04-27T03:32:53;54456.97;;;-144.73;100.00
73551;BME280;61816;53.582;10.096;2023-04-27T03:35:19;54407.69;;;-144.73;100.00
73551;BME280;61816;53.582;10.096;2023-04-27T03:37:44;54432.31;;;-144.73;100.00
73551;BME280;61816;53.582;10.096;2023-04-27T03:40:11;54391.28;;;-144.73;100.00
73551;BME280;61816;53.582;10.096;2023-04-27T03:42:36;54436.44;;;-144.73;100.00
73551;BME280;61816;53.582;10.096;2023-04-27T03:45:02;54424.13;;;-144.73;100.00
73551;BME280;61816;53.582;10.096;2023-04-27T03:47:28;54436.44;;;-144.73;100.00
73551;BME280;61816;53.582;10.096;2023-04-27T03:49:53;54407.69;;;-144.73;100.00
73551;BME280;61816;53.582;10.096;2023-04-27T03:52:18;54424.13;;;-144.73;100.00
73551;BME280;61816;53.582;10.096;2023-04-27T03:54:44;54432.31;;;-144.73;100.00
73551;BME280;61816;53.582;10.096;2023-04-27T03:57:09;54452.84;;;-144.73;100.00
73551;BME280;61816;53.582;10.096;2023-04-27T03:59:35;54413.84;;;-144.73;100.00
73551;BME280;61816;53.582;10.096;2023-04-27T04:02:00;54456.97;;;-144.73;100.00
73551;BME280;61816;53.582;10.096;2023-04-27T04:04:26;54411.81;;;-144.73;100.00
73551;BME280;61816;53.582;10.096;2023-04-27T04:06:51;54426.16;;;-144.73;100.00
73551;BME280;61816;53.582;10.096;2023-04-27T04:09:16;54440.53;;;-144.73;100.00
73551;BME280;61816;53.582;10.096;2023-04-27T04:11:42;54420.00;;;-144.73;100.00
73551;BME280;61816;53.582;10.096;2023-04-27T04:14:07;54424.13;;;-144.73;100.00
73551;BME280;61816;53.582;10.096;2023-04-27T04:16:32;54415.91;;;-144.73;100.00
73551;BME280;61816;53.582;10.096;2023-04-27T04:18:58;54440.53;;;-144.73;100.00
73551;BME280;61816;53.582;10.096;2023-04-27T04:21:23;54440.53;;;-144.73;100.00
73551;BME280;61816;53.582;10.096;2023-04-27T04:23:49;54428.22;;;-144.73;100.00
73551;BME280;61816;53.582;10.096;2023-04-27T04:26:14;54444.66;;;-144.73;100.00
73551;BME280;61816;53.582;10.096;2023-04-27T04:28:40;54411.81;;;-144.73;100.00
73551;BME280;61816;53.582;10.096;2023-04-27T04:31:06;54411.81;;;-144.73;100.00
73551;BME280;61816;53.582;10.096;2023-04-27T04:33:33;54407.69;;;-144.73;100.00
73551;BME280;61816;53.582;10.096;2023-04-27T04:36:02;54420.00;;;-144.73;100.00
73551;BME280;61816;53.582;10.096;2023-04-27T04:38:28;54424.13;;;-144.73;100.00
73551;BME280;61816;53.582;10.096;2023-04-27T04:40:53;54428.22;;;-144.73;100.00
73551;BME280;61816;53.582;10.096;2023-04-27T04:43:18;54461.06;;;-144.73;100.00
73551;BME280;61816;53.582;10.096;2023-04-27T04:45:44;54387.19;;;-144.73;100.00
73551;BME280;61816;53.582;10.096;2023-04-27T04:48:10;54448.75;;;-144.73;100.00
73551;BME280;61816;53.582;10.096;2023-04-27T04:50:35;54387.19;;;-144.73;100.00
73551;BME280;61816;53.582;10.096;2023-04-27T04:53:01;54415.91;;;-144.73;100.00
73551;BME280;61816;53.582;10.096;2023-04-27T04:55:26;54459.00;;;-144.73;100.00
73551;BME280;61816;53.582;10.096;2023-04-27T04:57:52;54407.69;;;-144.73;100.00
73551;BME280;61816;53.582;10.096;2023-04-27T05:00:17;54461.06;;;-144.73;100.00
73551;BME280;61816;53.582;10.096;2023-04-27T05:02:43;54389.22;;;-144.73;100.00
73551;BME280;61816;53.582;10.096;2023-04-27T05:05:08;54422.06;;;-144.73;100.00
73551;BME280;61816;53.582;10.096;2023-04-27T05:07:34;54436.44;;;-144.73;100.00
73551;BME280;61816;53.582;10.096;2023-04-27T05:09:59;54395.38;;;-144.73;100.00
73551;BME280;61816;53.582;10.096;2023-04-27T05:12:25;54407.69;;;-144.73;100.00
73551;BME280;61816;53.582;10.096;2023-04-27T05:14:51;54415.91;;;-144.73;100.00
73551;BME280;61816;53.582;10.096;2023-04-27T05:17:16;54428.22;;;-144.73;100.00
73551;BME280;61816;53.582;10.096;2023-04-27T05:19:42;54473.38;;;-144.73;100.00
73551;BME280;61816;53.582;10.096;2023-04-27T05:22:07;54436.44;;;-144.73;100.00
73551;BME280;61816;53.582;10.096;2023-04-27T05:24:32;54420.00;;;-144.73;100.00
73551;BME280;61816;53.582;10.096;2023-04-27T05:26:58;54420.00;;;-144.73;100.00
73551;BME280;61816;53.582;10.096;2023-04-27T05:29:23;54411.81;;;-144.73;100.00
73551;BME280;61816;53.582;10.096;2023-04-27T05:31:49;54444.66;;;-144.73;100.00
73551;BME280;61816;53.582;10.096;2023-04-27T05:34:14;54383.06;;;-144.73;100.00
73551;BME280;61816;53.582;10.096;2023-04-27T05:36:40;54452.84;;;-144.73;100.00
73551;BME280;61816;53.582;10.096;2023-04-27T05:39:05;54479.53;;;-144.73;100.00
73551;BME280;61816;53.582;10.096;2023-04-27T05:41:31;54376.91;;;-144.73;100.00
73551;BME280;61816;53.582;10.096;2023-04-27T05:43:57;54461.06;;;-144.73;100.00
73551;BME280;61816;53.582;10.096;2023-04-27T05:46:22;54444.66;;;-144.73;100.00
73551;BME280;61816;53.582;10.096;2023-04-27T05:48:47;54434.38;;;-144.73;100.00
73551;BME280;61816;53.582;10.096;2023-04-27T05:51:13;54436.44;;;-144.73;100.00
73551;BME280;61816;53.582;10.096;2023-04-27T05:53:38;54440.53;;;-144.73;100.00
73551;BME280;61816;53.582;10.096;2023-04-27T05:56:04;54424.13;;;-144.73;100.00
73551;BME280;61816;53.582;10.096;2023-04-27T05:58:31;54411.81;;;-144.73;100.00
73551;BME280;61816;53.582;10.096;2023-04-27T06:00:57;54420.00;;;-144.73;100.00
73551;BME280;61816;53.582;10.096;2023-04-27T06:03:23;54424.13;;;-144.73;100.00
73551;BME280;61816;53.582;10.096;2023-04-27T06:05:56;54436.44;;;-144.73;100.00
73551;BME280;61816;53.582;10.096;2023-04-27T06:08:22;54436.44;;;-144.73;100.00
73551;BME280;61816;53.582;10.096;2023-04-27T06:10:48;54456.97;;;-144.73;100.00
73551;BME280;61816;53.582;10.096;2023-04-27T06:13:14;54411.81;;;-144.73;100.00
73551;BME280;61816;53.582;10.096;2023-04-27T06:15:40;54436.44;;;-144.73;100.00
73551;BME280;61816;53.582;10.096;2023-04-27T06:18:05;54428.22;;;-144.73;100.00
73551;BME280;61816;53.582;10.096;2023-04-27T06:20:31;54477.47;;;-144.73;100.00
73551;BME280;61816;53.582;10.096;2023-04-27T06:22:57;54415.91;;;-144.73;100.00
73551;BME280;61816;53.582;10.096;2023-04-27T06:25:22;54407.69;;;-144.73;100.00
73551;BME280;61816;53.582;10.096;2023-04-27T06:27:47;54395.38;;;-144.73;100.00
73551;BME280;61816;53.582;10.096;2023-04-27T06:30:13;54420.00;;;-144.73;100.00
73551;BME280;61816;53.582;10.096;2023-04-27T06:32:38;54428.22;;;-144.73;100.00
73551;BME280;61816;53.582;10.096;2023-04-27T06:35:04;54454.91;;;-144.73;100.00
73551;BME280;61816;53.582;10.096;2023-04-27T06:37:30;54428.22;;;-144.73;100.00
73551;BME280;61816;53.582;10.096;2023-04-27T06:39:55;54448.75;;;-144.73;100.00
73551;BME280;61816;53.582;10.096;2023-04-27T06:42:20;54428.22;;;-144.73;100.00
73551;BME280;61816;53.582;10.096;2023-04-27T06:44:46;54491.84;;;-144.73;100.00
73551;BME280;61816;53.582;10.096;2023-04-27T06:47:11;54415.91;;;-144.73;100.00
73551;BME280;61816;53.582;10.096;2023-04-27T06:49:37;54415.91;;;-144.73;100.00
73551;BME280;61816;53.582;10.096;2023-04-27T06:52:04;54407.69;;;-144.73;100.00
73551;BME280;61816;53.582;10.096;2023-04-27T06:54:29;54452.84;;;-144.73;100.00
73551;BME280;61816;53.582;10.096;2023-04-27T06:56:55;54440.53;;;-144.73;100.00
73551;BME280;61816;53.582;10.096;2023-04-27T06:59:20;54442.59;;;-144.73;100.00
73551;BME280;61816;53.582;10.096;2023-04-27T07:01:46;54415.91;;;-144.73;100.00
73551;BME280;61816;53.582;10.096;2023-04-27T07:04:11;54469.28;;;-144.73;100.00
73551;BME280;61816;53.582;10.096;2023-04-27T07:06:36;54461.06;;;-144.73;100.00
73551;BME280;61816;53.582;10.096;2023-04-27T07:09:02;54415.91;;;-144.73;100.00
73551;BME280;61816;53.582;10.096;2023-04-27T07:11:30;54461.06;;;-144.73;97.98
73551;BME280;61816;53.582;10.096;2023-04-27T07:13:55;54407.69;;;-144.73;96.66
73551;BME280;61816;53.582;10.096;2023-04-27T07:16:20;54415.91;;;-144.73;98.08
73551;BME280;61816;53.582;10.096;2023-04-27T07:18:46;54442.59;;;-144.73;99.54
73551;BME280;61816;53.582;10.096;2023-04-27T07:21:11;54415.91;;;-144.73;98.56
73551;BME280;61816;53.582;10.096;2023-04-27T07:23:38;54436.44;;;-144.73;99.44
73551;BME280;61816;53.582;10.096;2023-04-27T07:26:03;54420.00;;;-144.73;98.17
73551;BME280;61816;53.582;10.096;2023-04-27T07:28:29;54438.50;;;-144.73;96.63
73551;BME280;61816;53.582;10.096;2023-04-27T07:30:54;54444.66;;;-144.73;93.85
73551;BME280;61816;53.582;10.096;2023-04-27T07:33:20;54383.06;;;-144.73;91.61
73551;BME280;61816;53.582;10.096;2023-04-27T07:35:46;54387.19;;;-144.73;88.00
73551;BME280;61816;53.582;10.096;2023-04-27T07:38:12;54444.66;;;-144.73;86.57
73551;BME280;61816;53.582;10.096;2023-04-27T07:40:37;54411.81;;;-144.73;81.17
73551;BME280;61816;53.582;10.096;2023-04-27T07:43:02;54436.44;;;-144.73;82.93
73551;BME280;61816;53.582;10.096;2023-04-27T07:45:29;54411.81;;;-144.73;84.40
73551;BME280;61816;53.582;10.096;2023-04-27T07:47:58;54411.81;;;-144.73;83.55
73551;BME280;61816;53.582;10.096;2023-04-27T07:50:28;54417.97;;;-144.73;83.00
73551;BME280;61816;53.582;10.096;2023-04-27T07:52:54;54452.84;;;-144.73;84.32
73551;BME280;61816;53.582;10.096;2023-04-27T07:55:21;54358.44;;;-144.73;83.65
73551;BME280;61816;53.582;10.096;2023-04-27T07:57:51;54428.22;;;-144.73;82.56
73551;BME280;61816;53.582;10.096;2023-04-27T08:00:16;54481.59;;;-144.73;83.50
73551;BME280;61816;53.582;10.096;2023-04-27T08:02:42;54448.75;;;-144.73;86.83
73551;BME280;61816;53.582;10.096;2023-04-27T08:05:08;54432.31;;;-144.73;87.31
73551;BME280;61816;53.582;10.096;2023-04-27T08:07:34;54415.91;;;-144.73;86.45
73551;BME280;61816;53.582;10.096;2023-04-27T08:09:59;54436.44;;;-144.73;84.85
73551;BME280;61816;53.582;10.096;2023-04-27T08:12:25;54420.00;;;-144.73;84.56
73551;BME280;61816;53.582;10.096;2023-04-27T08:14:50;54374.84;;;-144.73;84.06
73551;BME280;61816;53.582;10.096;2023-04-27T08:17:16;54354.34;;;-144.73;82.45
73551;BME280;61816;53.582;10.096;2023-04-27T08:19:42;54436.44;;;-144.73;76.61
73551;BME280;61816;53.582;10.096;2023-04-27T08:22:08;54354.34;;;-144.73;76.17
73551;BME280;61816;53.582;10.096;2023-04-27T08:24:33;54415.91;;;-144.73;77.76
73551;BME280;61816;53.582;10.096;2023-04-27T08:26:58;54378.97;;;-144.73;77.36
73551;BME280;61816;53.582;10.096;2023-04-27T08:29:24;54391.28;;;-144.73;75.68
73551;BME280;61816;53.582;10.096;2023-04-27T08:31:49;54417.97;;;-144.73;76.15
73551;BME280;61816;53.582;10.096;2023-04-27T08:34:15;54378.97;;;-144.73;78.28
73551;BME280;61816;53.582;10.096;2023-04-27T08:36:41;54358.44;;;-144.73;77.80
73551;BME280;61816;53.582;10.096;2023-04-27T08:39:07;54428.22;;;-144.73;76.63
73551;BME280;61816;53.582;10.096;2023-04-27T08:41:33;54444.66;;;-144.73;76.48
73551;BME280;61816;53.582;10.096;2023-04-27T08:43:58;54411.81;;;-144.73;77.71
73551;BME280;61816;53.582;10.096;2023-04-27T08:46:24;54424.13;;;-144.73;77.73
73551;BME280;61816;53.582;10.096;2023-04-27T08:48:53;54378.97;;;-144.73;74.24
73551;BME280;61816;53.582;10.096;2023-04-27T08:51:19;54374.84;;;-144.73;69.83
73551;BME280;61816;53.582;10.096;2023-04-27T08:53:49;54383.06;;;-144.73;69.38
73551;BME280;61816;53.582;10.096;2023-04-27T08:56:15;54383.06;;;-144.73;69.49
73551;BME280;61816;53.582;10.096;2023-04-27T08:58:40;54366.66;;;-144.73;67.84
73551;BME280;61816;53.582;10.096;2023-04-27T09:01:06;54456.97;;;-144.73;67.18
73551;BME280;61816;53.582;10.096;2023-04-27T09:03:32;54374.84;;;-144.73;66.66
73551;BME280;61816;53.582;10.096;2023-04-27T09:06:04;54411.81;;;-144.73;68.50
73551;BME280;61816;53.582;10.096;2023-04-27T09:08:49;54374.84;;;-144.73;67.38
73551;BME280;61816;53.582;10.096;2023-04-27T09:11:28;54407.69;;;-144.73;67.67
73551;BME280;61816;53.582;10.096;2023-04-27T09:13:54;54411.81;;;-144.73;66.72
73551;BME280;61816;53.582;10.096;2023-04-27T09:16:24;54407.69;;;-144.73;67.31
73551;BME280;61816;53.582;10.096;2023-04-27T09:18:50;54428.22;;;-144.73;65.07
73551;BME280;61816;53.582;10.096;2023-04-27T09:21:26;54391.28;;;-144.73;63.44
73551;BME280;61816;53.582;10.096;2023-04-27T09:23:52;54370.75;;;-144.73;63.45
73551;BME280;61816;53.582;10.096;2023-04-27T09:26:23;54395.38;;;-144.73;61.79
73551;BME280;61816;53.582;10.096;2023-04-27T09:28:53;54391.28;;;-144.73;60.13
73551;BME280;61816;53.582;10.096;2023-04-27T09:31:29;54407.69;;;-144.73;58.87
73551;BME280;61816;53.582;10.096;2023-04-27T09:33:55;54387.19;;;-144.73;57.14
73551;BME280;61816;53.582;10.096;2023-04-27T09:36:21;54387.19;;;-144.73;58.46
73551;BME280;61816;53.582;10.096;2023-04-27T09:38:46;54383.06;;;-144.73;57.35
73551;BME280;61816;53.582;10.096;2023-04-27T09:41:13;54383.06;;;-144.73;56.68
73551;BME280;61816;53.582;10.096;2023-04-27T09:43:38;54366.66;;;-144.73;56.01
73551;BME280;61816;53.582;10.096;2023-04-27T09:46:05;54366.66;;;-144.73;54.46
73551;BME280;61816;53.582;10.096;2023-04-27T09:48:30;54387.19;;;-144.73;58.57
73551;BME280;61816;53.582;10.096;2023-04-27T09:50:56;54381.00;;;-144.73;63.07
73551;BME280;61816;53.582;10.096;2023-04-27T09:53:45;54378.97;;;-144.73;66.02
73551;BME280;61816;53.582;10.096;2023-04-27T09:56:30;54354.34;;;-144.73;64.24
73551;BME280;61816;53.582;10.096;2023-04-27T10:01:41;54378.97;;;-144.73;55.94
73551;BME280;61816;53.582;10.096;2023-04-27T10:04:29;54422.06;;;-144.73;53.05
73551;BME280;61816;53.582;10.096;2023-04-27T10:07:02;54415.91;;;-144.73;55.45
73551;BME280;61816;53.582;10.096;2023-04-27T10:09:36;54395.38;;;-144.73;57.88
73551;BME280;61816;53.582;10.096;2023-04-27T10:12:17;54374.84;;;-144.73;57.36
73551;BME280;61816;53.582;10.096;2023-04-27T10:14:51;54370.75;;;-144.73;54.97
73551;BME280;61816;53.582;10.096;2023-04-27T10:17:17;54411.81;;;-144.73;54.76
73551;BME280;61816;53.582;10.096;2023-04-27T10:19:54;54428.22;;;-144.73;55.20
73551;BME280;61816;53.582;10.096;2023-04-27T10:22:20;54389.22;;;-144.73;57.43
73551;BME280;61816;53.582;10.096;2023-04-27T10:24:48;54415.91;;;-144.73;60.29
73551;BME280;61816;53.582;10.096;2023-04-27T10:27:16;54424.13;;;-144.73;59.30
73551;BME280;61816;53.582;10.096;2023-04-27T10:29:49;54350.22;;;-144.73;56.18
73551;BME280;61816;53.582;10.096;2023-04-27T10:32:22;54387.19;;;-144.73;54.20
73551;BME280;61816;53.582;10.096;2023-04-27T10:35:03;54391.28;;;-144.73;55.71
73551;BME280;61816;53.582;10.096;2023-04-27T10:37:38;54378.97;;;-144.73;53.71
73551;BME280;61816;53.582;10.096;2023-04-27T10:40:11;54395.38;;;-144.73;54.42
73551;BME280;61816;53.582;10.096;2023-04-27T10:42:44;54383.06;;;-144.73;54.19
73551;BME280;61816;53.582;10.096;2023-04-27T10:45:10;54395.38;;;-144.73;56.42
73551;BME280;61816;53.582;10.096;2023-04-27T10:47:40;54374.84;;;-144.73;57.86
73551;BME280;61816;53.582;10.096;2023-04-27T10:50:10;54383.06;;;-144.73;58.89
73551;BME280;61816;53.582;10.096;2023-04-27T10:52:42;54407.69;;;-144.73;58.63
73551;BME280;61816;53.582;10.096;2023-04-27T10:55:18;54448.75;;;-144.73;58.12
73551;BME280;61816;53.582;10.096;2023-04-27T10:57:54;54342.03;;;-144.73;57.37
73551;BME280;61816;53.582;10.096;2023-04-27T11:03:14;54387.19;;;-144.73;59.00
73551;BME280;61816;53.582;10.096;2023-04-27T11:05:42;54378.97;;;-144.73;58.48
73551;BME280;61816;53.582;10.096;2023-04-27T11:08:10;54370.75;;;-144.73;58.46
73551;BME280;61816;53.582;10.096;2023-04-27T11:10:44;54387.19;;;-144.73;57.44
73551;BME280;61816;53.582;10.096;2023-04-27T11:13:15;54399.50;;;-144.73;56.47
73551;BME280;61816;53.582;10.096;2023-04-27T11:15:53;54407.69;;;-144.73;58.10
73551;BME280;61816;53.582;10.096;2023-04-27T11:18:20;54407.69;;;-144.73;58.23
73551;BME280;61816;53.582;10.096;2023-04-27T11:20:51;54383.06;;;-144.73;57.46
73551;BME280;61816;53.582;10.096;2023-04-27T11:23:28;54436.44;;;-144.73;57.36
73551;BME280;61816;53.582;10.096;2023-04-27T11:25:55;54415.91;;;-144.73;56.61
73551;BME280;61816;53.582;10.096;2023-04-27T11:28:23;54399.50;;;-144.73;58.30
73551;BME280;61816;53.582;10.096;2023-04-27T11:30:56;54432.31;;;-144.73;60.37
73551;BME280;61816;53.582;10.096;2023-04-27T11:33:22;54411.81;;;-144.73;62.03
73551;BME280;61816;53.582;10.096;2023-04-27T11:35:47;54381.00;;;-144.73;62.25
73551;BME280;61816;53.582;10.096;2023-04-27T11:38:19;54387.19;;;-144.73;62.26
73551;BME280;61816;53.582;10.096;2023-04-27T11:40:46;54420.00;;;-144.73;60.94
73551;BME280;61816;53.582;10.096;2023-04-27T11:43:12;54356.38;;;-144.73;60.37
73551;BME280;61816;53.582;10.096;2023-04-27T11:45:41;54378.97;;;-144.73;59.38
73551;BME280;61816;53.582;10.096;2023-04-27T11:48:14;54407.69;;;-144.73;57.95
73551;BME280;61816;53.582;10.096;2023-04-27T11:50:39;54395.38;;;-144.73;59.87
73551;BME280;61816;53.582;10.096;2023-04-27T11:53:05;54407.69;;;-144.73;59.57
73551;BME280;61816;53.582;10.096;2023-04-27T11:55:34;54411.81;;;-144.73;59.18
73551;BME280;61816;53.582;10.096;2023-04-27T11:58:00;54358.44;;;-144.73;60.27
73551;BME280;61816;53.582;10.096;2023-04-27T12:00:25;54378.97;;;-144.73;61.63
73551;BME280;61816;53.582;10.096;2023-04-27T12:02:50;54370.75;;;-144.73;60.06
73551;BME280;61816;53.582;10.096;2023-04-27T12:05:16;54368.69;;;-144.73;59.79
73551;BME280;61816;53.582;10.096;2023-04-27T12:07:42;54350.22;;;-144.73;58.87
73551;BME280;61816;53.582;10.096;2023-04-27T12:10:07;54383.06;;;-144.73;60.40
73551;BME280;61816;53.582;10.096;2023-04-27T12:12:33;54385.13;;;-144.73;59.43
73551;BME280;61816;53.582;10.096;2023-04-27T12:14:58;54378.97;;;-144.73;57.97
73551;BME280;61816;53.582;10.096;2023-04-27T12:17:24;54407.69;;;-144.73;59.50
73551;BME280;61816;53.582;10.096;2023-04-27T12:19:49;54387.19;;;-144.73;59.33
73551;BME280;61816;53.582;10.096;2023-04-27T12:22:14;54395.38;;;-144.73;60.29
73551;BME280;61816;53.582;10.096;2023-04-27T12:24:40;54415.91;;;-144.73;59.30
73551;BME280;61816;53.582;10.096;2023-04-27T12:27:05;54360.50;;;-144.73;58.70
73551;BME280;61816;53.582;10.096;2023-04-27T12:29:31;54407.69;;;-144.73;58.39